Terminal Aerodrome Forecast
Issued by NWS Wilmington, OH

Home | Current Version | Previous Version | Text Only | Print | Product List | Glossary On
Versions: 1 2 3 4 5 6 7 8 9 10 11 12 13 14 15 16 17 18 19 20 21 22
000
FTUS41 KILN 260500
TAFILN
TAF
KILN 260539Z 2606/2706 01014G22KT 1 1/2SM -SN SCT007 OVC012
     FM260700 01014G22KT 3SM -SN OVC015
      TEMPO 2608/2611 OVC022
     FM261100 34011G19KT P6SM OVC015
     FM261500 33011KT P6SM BKN015
     FM262300 35005KT P6SM SCT015=

USA.gov is the U.S. government's official web portal to all federal, state and local government web resources and services.